Terminal Aerodrome Forecast
Issued by NWS Jackson, KY

Home | Current Version | Previous Version | Text Only | Print | Product List | Glossary On
Versions: 1 2 3 4 5 6 7 8 9 10 11 12 13 14 15 16 17 18 19 20 21 22
000
FTUS43 KJKL 071740
TAFLOZ
TAF
KLOZ 071740Z 0718/0818 23009KT P6SM VCTS SCT025CB BKN035 OVC200
     FM080400 21003KT 4SM BR VCTS SCT025CB OVC100
     FM081300 22009KT 5SM BR VCTS OVC015CB=

USA.gov is the U.S. government's official web portal to all federal, state and local government web resources and services.